sensor_id;sensor_type;location;lat;lon;timestamp;temperature;humidity
68177;DHT22;56478;50.982;7.032;2023-04-25T00:23:44;7.96;78.79
68177;DHT22;56478;50.982;7.032;2023-04-25T02:22:55;7.21;79.01
68177;DHT22;56478;50.982;7.032;2023-04-25T02:29:30;7.23;78.92
68177;DHT22;56478;50.982;7.032;2023-04-25T02:32:31;7.32;78.60
68177;DHT22;56478;50.982;7.032;2023-04-25T03:22:49;7.98;76.09
68177;DHT22;56478;50.982;7.032;2023-04-25T03:25:18;7.97;75.71
68177;DHT22;56478;50.982;7.032;2023-04-25T03:27:51;8.01;76.27
68177;DHT22;56478;50.982;7.032;2023-04-25T03:30:16;8.03;76.60
68177;DHT22;56478;50.982;7.032;2023-04-25T03:32:47;7.97;75.32
68177;DHT22;56478;50.982;7.032;2023-04-25T03:35:16;8.01;76.34
68177;DHT22;56478;50.982;7.032;2023-04-25T04:05:08;8.05;76.79
68177;DHT22;56478;50.982;7.032;2023-04-25T04:25:28;8.14;77.32
68177;DHT22;56478;50.982;7.032;2023-04-25T04:36:12;8.32;77.67
68177;DHT22;56478;50.982;7.032;2023-04-25T04:56:58;8.50;77.09
68177;DHT22;56478;50.982;7.032;2023-04-25T04:59:44;8.46;77.99
68177;DHT22;56478;50.982;7.032;2023-04-25T05:02:48;8.46;77.87
68177;DHT22;56478;50.982;7.032;2023-04-25T05:05:39;8.52;77.70
68177;DHT22;56478;50.982;7.032;2023-04-25T05:08:51;8.50;77.48
68177;DHT22;56478;50.982;7.032;2023-04-25T05:29:35;8.62;77.68
68177;DHT22;56478;50.982;7.032;2023-04-25T05:32:41;8.52;76.95
68177;DHT22;56478;50.982;7.032;2023-04-25T05:35:40;8.72;76.93
68177;DHT22;56478;50.982;7.032;2023-04-25T05:38:16;8.91;75.85
68177;DHT22;56478;50.982;7.032;2023-04-25T05:52:22;9.24;73.99
68177;DHT22;56478;50.982;7.032;2023-04-25T05:55:16;9.31;74.07
68177;DHT22;56478;50.982;7.032;2023-04-25T05:57:42;9.26;73.89
68177;DHT22;56478;50.982;7.032;2023-04-25T06:03:24;9.35;74.38
68177;DHT22;56478;50.982;7.032;2023-04-25T06:05:58;9.59;73.60
68177;DHT22;56478;50.982;7.032;2023-04-25T06:08:39;9.83;72.57
68177;DHT22;56478;50.982;7.032;2023-04-25T06:11:08;10.26;71.50
68177;DHT22;56478;50.982;7.032;2023-04-25T06:13:34;10.52;69.86
68177;DHT22;56478;50.982;7.032;2023-04-25T06:20:10;11.60;65.34
68177;DHT22;56478;50.982;7.032;2023-04-25T06:22:40;13.27;60.82
68177;DHT22;56478;50.982;7.032;2023-04-25T06:25:11;12.95;60.73
68177;DHT22;56478;50.982;7.032;2023-04-25T06:27:46;13.37;59.46
68177;DHT22;56478;50.982;7.032;2023-04-25T06:30:29;13.05;59.45
68177;DHT22;56478;50.982;7.032;2023-04-25T06:32:55;13.85;57.23
68177;DHT22;56478;50.982;7.032;2023-04-25T06:35:21;13.78;56.80
68177;DHT22;56478;50.982;7.032;2023-04-25T06:37:46;15.18;54.56
68177;DHT22;56478;50.982;7.032;2023-04-25T06:40:12;14.68;54.11
68177;DHT22;56478;50.982;7.032;2023-04-25T06:42:37;14.34;55.28
68177;DHT22;56478;50.982;7.032;2023-04-25T06:45:03;15.19;52.53
68177;DHT22;56478;50.982;7.032;2023-04-25T06:47:32;14.34;53.74
68177;DHT22;56478;50.982;7.032;2023-04-25T06:49:57;13.91;55.78
68177;DHT22;56478;50.982;7.032;2023-04-25T06:52:23;13.55;56.14
68177;DHT22;56478;50.982;7.032;2023-04-25T06:54:48;13.65;55.60
68177;DHT22;56478;50.982;7.032;2023-04-25T06:57:14;13.46;55.63
68177;DHT22;56478;50.982;7.032;2023-04-25T06:59:40;13.36;56.88
68177;DHT22;56478;50.982;7.032;2023-04-25T07:02:05;13.26;56.44
68177;DHT22;56478;50.982;7.032;2023-04-25T07:04:31;13.24;55.73
68177;DHT22;56478;50.982;7.032;2023-04-25T07:06:56;13.42;55.29
68177;DHT22;56478;50.982;7.032;2023-04-25T07:09:30;13.15;56.30
68177;DHT22;56478;50.982;7.032;2023-04-25T07:11:59;12.85;57.54
68177;DHT22;56478;50.982;7.032;2023-04-25T07:14:27;12.47;60.08
68177;DHT22;56478;50.982;7.032;2023-04-25T07:16:52;12.63;59.40
68177;DHT22;56478;50.982;7.032;2023-04-25T07:19:18;12.68;57.81
68177;DHT22;56478;50.982;7.032;2023-04-25T07:21:43;12.75;58.15
68177;DHT22;56478;50.982;7.032;2023-04-25T07:24:09;12.64;59.89
68177;DHT22;56478;50.982;7.032;2023-04-25T07:26:37;11.95;60.98
68177;DHT22;56478;50.982;7.032;2023-04-25T07:29:03;11.67;62.12
68177;DHT22;56478;50.982;7.032;2023-04-25T07:31:28;12.53;58.54
68177;DHT22;56478;50.982;7.032;2023-04-25T07:33:54;12.16;60.59
68177;DHT22;56478;50.982;7.032;2023-04-25T07:36:20;12.16;60.32
68177;DHT22;56478;50.982;7.032;2023-04-25T07:38:47;14.48;54.92
68177;DHT22;56478;50.982;7.032;2023-04-25T07:41:21;16.12;49.90
68177;DHT22;56478;50.982;7.032;2023-04-25T07:43:46;16.71;47.03
68177;DHT22;56478;50.982;7.032;2023-04-25T07:46:15;15.92;47.75
68177;DHT22;56478;50.982;7.032;2023-04-25T07:48:40;15.43;49.18
68177;DHT22;56478;50.982;7.032;2023-04-25T07:51:06;14.51;51.41
68177;DHT22;56478;50.982;7.032;2023-04-25T07:53:32;13.78;53.47
68177;DHT22;56478;50.982;7.032;2023-04-25T07:56:00;13.15;56.32
68177;DHT22;56478;50.982;7.032;2023-04-25T07:58:25;12.85;56.95
68177;DHT22;56478;50.982;7.032;2023-04-25T08:00:51;13.58;54.80
68177;DHT22;56478;50.982;7.032;2023-04-25T08:03:16;14.88;52.89
68177;DHT22;56478;50.982;7.032;2023-04-25T08:05:42;15.74;49.35
68177;DHT22;56478;50.982;7.032;2023-04-25T08:08:07;16.09;47.60
68177;DHT22;56478;50.982;7.032;2023-04-25T08:10:33;16.31;45.78
68177;DHT22;56478;50.982;7.032;2023-04-25T08:12:59;16.09;45.97
68177;DHT22;56478;50.982;7.032;2023-04-25T08:15:25;15.50;47.25
68177;DHT22;56478;50.982;7.032;2023-04-25T08:17:51;15.72;45.67
68177;DHT22;56478;50.982;7.032;2023-04-25T08:20:17;15.37;47.88
68177;DHT22;56478;50.982;7.032;2023-04-25T08:22:43;14.60;49.58
68177;DHT22;56478;50.982;7.032;2023-04-25T08:25:08;13.81;51.59
68177;DHT22;56478;50.982;7.032;2023-04-25T08:27:34;13.35;51.86
68177;DHT22;56478;50.982;7.032;2023-04-25T08:30:00;13.13;51.72
68177;DHT22;56478;50.982;7.032;2023-04-25T08:32:26;12.84;52.96
68177;DHT22;56478;50.982;7.032;2023-04-25T08:34:51;12.39;54.18
68177;DHT22;56478;50.982;7.032;2023-04-25T08:37:19;12.56;53.41
68177;DHT22;56478;50.982;7.032;2023-04-25T08:39:45;12.25;54.50
68177;DHT22;56478;50.982;7.032;2023-04-25T08:42:14;12.29;54.28
68177;DHT22;56478;50.982;7.032;2023-04-25T08:44:40;12.15;56.13
68177;DHT22;56478;50.982;7.032;2023-04-25T08:47:06;11.99;56.76
68177;DHT22;56478;50.982;7.032;2023-04-25T08:49:32;12.14;53.95
68177;DHT22;56478;50.982;7.032;2023-04-25T08:52:03;11.91;54.89
68177;DHT22;56478;50.982;7.032;2023-04-25T08:54:31;11.77;54.98
68177;DHT22;56478;50.982;7.032;2023-04-25T08:57:00;11.52;57.23
68177;DHT22;56478;50.982;7.032;2023-04-25T08:59:30;11.46;58.07
68177;DHT22;56478;50.982;7.032;2023-04-25T09:01:57;11.35;58.37
68177;DHT22;56478;50.982;7.032;2023-04-25T09:04:25;11.36;58.95
68177;DHT22;56478;50.982;7.032;2023-04-25T09:06:51;11.25;59.32
68177;DHT22;56478;50.982;7.032;2023-04-25T09:09:16;11.26;59.68
68177;DHT22;56478;50.982;7.032;2023-04-25T09:11:42;11.26;60.39
68177;DHT22;56478;50.982;7.032;2023-04-25T09:14:22;11.36;60.05
68177;DHT22;56478;50.982;7.032;2023-04-25T09:19:27;12.53;56.29
68177;DHT22;56478;50.982;7.032;2023-04-25T09:21:57;13.26;53.37
68177;DHT22;56478;50.982;7.032;2023-04-25T09:24:38;13.63;51.51
68177;DHT22;56478;50.982;7.032;2023-04-25T09:27:08;13.95;50.35
68177;DHT22;56478;50.982;7.032;2023-04-25T09:29:36;14.56;48.09
68177;DHT22;56478;50.982;7.032;2023-04-25T09:32:20;16.23;43.11
68177;DHT22;56478;50.982;7.032;2023-04-25T09:34:50;17.94;41.05
68177;DHT22;56478;50.982;7.032;2023-04-25T09:37:21;16.97;42.53
68177;DHT22;56478;50.982;7.032;2023-04-25T09:39:53;15.69;45.42
68177;DHT22;56478;50.982;7.032;2023-04-25T09:42:24;15.51;44.76
68177;DHT22;56478;50.982;7.032;2023-04-25T09:44:55;14.72;47.10
68177;DHT22;56478;50.982;7.032;2023-04-25T09:47:23;14.15;47.65
68177;DHT22;56478;50.982;7.032;2023-04-25T09:49:50;13.85;48.75
68177;DHT22;56478;50.982;7.032;2023-04-25T09:52:20;13.55;50.14
68177;DHT22;56478;50.982;7.032;2023-04-25T09:54:47;13.64;50.27
68177;DHT22;56478;50.982;7.032;2023-04-25T09:57:18;13.79;48.80
68177;DHT22;56478;50.982;7.032;2023-04-25T09:59:48;13.55;48.94
68177;DHT22;56478;50.982;7.032;2023-04-25T10:02:16;13.48;49.74
68177;DHT22;56478;50.982;7.032;2023-04-25T10:04:48;13.37;48.53
68177;DHT22;56478;50.982;7.032;2023-04-25T10:07:39;13.22;48.27
68177;DHT22;56478;50.982;7.032;2023-04-25T10:10:10;13.09;48.34
68177;DHT22;56478;50.982;7.032;2023-04-25T10:12:41;12.78;48.82
68177;DHT22;56478;50.982;7.032;2023-04-25T10:15:09;12.68;48.73
68177;DHT22;56478;50.982;7.032;2023-04-25T10:17:35;12.60;48.62
68177;DHT22;56478;50.982;7.032;2023-04-25T10:20:04;12.81;47.93
68177;DHT22;56478;50.982;7.032;2023-04-25T10:22:36;12.74;48.45
68177;DHT22;56478;50.982;7.032;2023-04-25T10:25:02;12.85;48.32
68177;DHT22;56478;50.982;7.032;2023-04-25T10:27:31;13.22;47.61
68177;DHT22;56478;50.982;7.032;2023-04-25T10:30:08;13.63;47.59
68177;DHT22;56478;50.982;7.032;2023-04-25T10:32:36;15.30;44.53
68177;DHT22;56478;50.982;7.032;2023-04-25T10:35:18;18.26;38.14
68177;DHT22;56478;50.982;7.032;2023-04-25T10:38:10;18.56;39.08
68177;DHT22;56478;50.982;7.032;2023-04-25T10:40:36;17.74;38.12
68177;DHT22;56478;50.982;7.032;2023-04-25T10:43:33;16.33;40.31
68177;DHT22;56478;50.982;7.032;2023-04-25T10:45:59;15.54;43.34
68177;DHT22;56478;50.982;7.032;2023-04-25T10:48:29;14.79;43.01
68177;DHT22;56478;50.982;7.032;2023-04-25T10:51:35;14.44;43.78
68177;DHT22;56478;50.982;7.032;2023-04-25T10:54:04;13.74;44.79
68177;DHT22;56478;50.982;7.032;2023-04-25T10:59:16;13.02;48.72
68177;DHT22;56478;50.982;7.032;2023-04-25T11:01:47;12.81;48.72
68177;DHT22;56478;50.982;7.032;2023-04-25T11:04:31;12.73;48.65
68177;DHT22;56478;50.982;7.032;2023-04-25T11:09:35;12.77;47.68
68177;DHT22;56478;50.982;7.032;2023-04-25T11:12:01;12.92;48.24
68177;DHT22;56478;50.982;7.032;2023-04-25T11:14:27;12.81;47.43
68177;DHT22;56478;50.982;7.032;2023-04-25T11:16:56;13.22;46.87
68177;DHT22;56478;50.982;7.032;2023-04-25T11:19:22;13.43;45.93
68177;DHT22;56478;50.982;7.032;2023-04-25T11:21:48;14.05;45.70
68177;DHT22;56478;50.982;7.032;2023-04-25T11:24:14;14.20;44.16
68177;DHT22;56478;50.982;7.032;2023-04-25T11:26:42;14.20;44.79
68177;DHT22;56478;50.982;7.032;2023-04-25T11:29:08;14.57;42.81
68177;DHT22;56478;50.982;7.032;2023-04-25T11:31:33;14.86;41.74
68177;DHT22;56478;50.982;7.032;2023-04-25T11:33:59;14.96;40.99
68177;DHT22;56478;50.982;7.032;2023-04-25T11:36:25;14.48;44.11
68177;DHT22;56478;50.982;7.032;2023-04-25T11:38:52;14.26;42.98
68177;DHT22;56478;50.982;7.032;2023-04-25T11:41:19;14.33;42.40
68177;DHT22;56478;50.982;7.032;2023-04-25T11:43:45;14.13;43.68
68177;DHT22;56478;50.982;7.032;2023-04-25T11:46:11;14.25;43.42
68177;DHT22;56478;50.982;7.032;2023-04-25T11:48:38;14.71;40.58
68177;DHT22;56478;50.982;7.032;2023-04-25T11:51:04;14.60;41.91
68177;DHT22;56478;50.982;7.032;2023-04-25T11:53:30;14.89;41.98
68177;DHT22;56478;50.982;7.032;2023-04-25T11:55:55;15.12;41.38
68177;DHT22;56478;50.982;7.032;2023-04-25T11:58:21;15.61;39.39
68177;DHT22;56478;50.982;7.032;2023-04-25T12:00:46;15.89;37.61
68177;DHT22;56478;50.982;7.032;2023-04-25T12:03:12;15.81;39.36
68177;DHT22;56478;50.982;7.032;2023-04-25T12:05:38;15.99;40.05
68177;DHT22;56478;50.982;7.032;2023-04-25T12:08:14;16.27;38.24
68177;DHT22;56478;50.982;7.032;2023-04-25T12:10:42;16.16;38.37
68177;DHT22;56478;50.982;7.032;2023-04-25T12:13:24;16.21;40.78
68177;DHT22;56478;50.982;7.032;2023-04-25T12:15:50;16.31;40.54
68177;DHT22;56478;50.982;7.032;2023-04-25T12:18:20;15.98;38.99
68177;DHT22;56478;50.982;7.032;2023-04-25T12:20:46;15.46;37.12
68177;DHT22;56478;50.982;7.032;2023-04-25T12:23:11;15.37;39.52
68177;DHT22;56478;50.982;7.032;2023-04-25T12:25:42;15.59;38.83
68177;DHT22;56478;50.982;7.032;2023-04-25T12:28:19;15.66;41.24
68177;DHT22;56478;50.982;7.032;2023-04-25T12:31:04;15.53;38.44
68177;DHT22;56478;50.982;7.032;2023-04-25T12:33:35;15.14;38.79
68177;DHT22;56478;50.982;7.032;2023-04-25T12:36:02;15.13;38.88
68177;DHT22;56478;50.982;7.032;2023-04-25T12:38:36;15.30;37.97
68177;DHT22;56478;50.982;7.032;2023-04-25T12:41:02;15.27;38.42
68177;DHT22;56478;50.982;7.032;2023-04-25T12:43:27;15.19;39.45
68177;DHT22;56478;50.982;7.032;2023-04-25T12:45:54;14.85;39.81
68177;DHT22;56478;50.982;7.032;2023-04-25T12:48:20;14.29;40.98
68177;DHT22;56478;50.982;7.032;2023-04-25T12:50:47;13.89;42.95
68177;DHT22;56478;50.982;7.032;2023-04-25T12:53:17;13.58;43.65
68177;DHT22;56478;50.982;7.032;2023-04-25T12:55:43;13.88;42.91
68177;DHT22;56478;50.982;7.032;2023-04-25T12:58:11;13.64;44.12
68177;DHT22;56478;50.982;7.032;2023-04-25T13:00:36;13.58;43.41
68177;DHT22;56478;50.982;7.032;2023-04-25T13:03:02;13.53;43.84
68177;DHT22;56478;50.982;7.032;2023-04-25T13:05:28;13.51;43.32
68177;DHT22;56478;50.982;7.032;2023-04-25T13:07:55;13.43;44.30
68177;DHT22;56478;50.982;7.032;2023-04-25T13:10:21;13.37;43.44
68177;DHT22;56478;50.982;7.032;2023-04-25T13:12:46;13.27;43.15
68177;DHT22;56478;50.982;7.032;2023-04-25T13:15:12;13.32;44.05
68177;DHT22;56478;50.982;7.032;2023-04-25T13:17:38;13.77;42.06
68177;DHT22;56478;50.982;7.032;2023-04-25T13:20:05;14.15;41.93
68177;DHT22;56478;50.982;7.032;2023-04-25T13:22:34;14.60;40.44
68177;DHT22;56478;50.982;7.032;2023-04-25T13:25:02;15.19;39.61
68177;DHT22;56478;50.982;7.032;2023-04-25T13:27:28;15.37;41.26
68177;DHT22;56478;50.982;7.032;2023-04-25T13:29:53;15.66;39.80
68177;DHT22;56478;50.982;7.032;2023-04-25T13:32:18;15.58;40.87
68177;DHT22;56478;50.982;7.032;2023-04-25T13:34:44;15.44;39.42
68177;DHT22;56478;50.982;7.032;2023-04-25T13:37:09;15.10;41.56
68177;DHT22;56478;50.982;7.032;2023-04-25T13:39:35;15.24;40.10
68177;DHT22;56478;50.982;7.032;2023-04-25T13:42:00;15.31;42.77
68177;DHT22;56478;50.982;7.032;2023-04-25T13:44:27;15.03;45.13
68177;DHT22;56478;50.982;7.032;2023-04-25T13:46:52;14.95;44.83
68177;DHT22;56478;50.982;7.032;2023-04-25T13:49:18;14.79;50.68
68177;DHT22;56478;50.982;7.032;2023-04-25T13:51:43;14.57;47.14
68177;DHT22;56478;50.982;7.032;2023-04-25T13:54:09;14.67;47.25
68177;DHT22;56478;50.982;7.032;2023-04-25T13:56:34;14.41;47.04
68177;DHT22;56478;50.982;7.032;2023-04-25T13:59:00;14.23;47.00
68177;DHT22;56478;50.982;7.032;2023-04-25T14:01:25;14.27;45.60
68177;DHT22;56478;50.982;7.032;2023-04-25T14:03:53;14.17;49.54
68177;DHT22;56478;50.982;7.032;2023-04-25T14:06:18;14.10;46.24
68177;DHT22;56478;50.982;7.032;2023-04-25T14:08:49;14.13;45.64
68177;DHT22;56478;50.982;7.032;2023-04-25T14:11:15;14.19;46.44
68177;DHT22;56478;50.982;7.032;2023-04-25T14:13:40;14.33;46.97
68177;DHT22;56478;50.982;7.032;2023-04-25T14:16:06;14.36;46.02
68177;DHT22;56478;50.982;7.032;2023-04-25T14:18:31;14.33;44.42
68177;DHT22;56478;50.982;7.032;2023-04-25T14:20:57;14.10;46.05
68177;DHT22;56478;50.982;7.032;2023-04-25T14:23:22;14.05;45.58
68177;DHT22;56478;50.982;7.032;2023-04-25T14:25:48;13.94;46.77
68177;DHT22;56478;50.982;7.032;2023-04-25T14:28:13;13.95;46.39
68177;DHT22;56478;50.982;7.032;2023-04-25T14:30:39;14.17;44.64
68177;DHT22;56478;50.982;7.032;2023-04-25T14:33:04;14.23;46.68
68177;DHT22;56478;50.982;7.032;2023-04-25T14:35:30;14.22;46.20
68177;DHT22;56478;50.982;7.032;2023-04-25T14:37:56;14.40;46.01
68177;DHT22;56478;50.982;7.032;2023-04-25T14:40:22;14.47;41.72
68177;DHT22;56478;50.982;7.032;2023-04-25T14:42:48;14.32;42.32
68177;DHT22;56478;50.982;7.032;2023-04-25T14:45:14;14.25;42.99
68177;DHT22;56478;50.982;7.032;2023-04-25T14:47:40;14.30;43.60
68177;DHT22;56478;50.982;7.032;2023-04-25T14:50:07;14.06;40.64
68177;DHT22;56478;50.982;7.032;2023-04-25T14:52:34;13.99;40.03
68177;DHT22;56478;50.982;7.032;2023-04-25T14:54:59;13.94;41.21
68177;DHT22;56478;50.982;7.032;2023-04-25T14:57:27;14.17;42.14
68177;DHT22;56478;50.982;7.032;2023-04-25T14:59:52;14.38;42.05
68177;DHT22;56478;50.982;7.032;2023-04-25T15:02:18;14.58;41.93
68177;DHT22;56478;50.982;7.032;2023-04-25T15:04:43;14.60;41.58
68177;DHT22;56478;50.982;7.032;2023-04-25T15:07:09;14.51;41.78
68177;DHT22;56478;50.982;7.032;2023-04-25T15:09:35;14.38;41.39
68177;DHT22;56478;50.982;7.032;2023-04-25T15:12:01;14.10;43.77
68177;DHT22;56478;50.982;7.032;2023-04-25T15:14:27;14.26;43.27
68177;DHT22;56478;50.982;7.032;2023-04-25T15:16:52;14.32;44.75
68177;DHT22;56478;50.982;7.032;2023-04-25T15:19:18;14.43;42.64
68177;DHT22;56478;50.982;7.032;2023-04-25T15:21:43;14.34;42.69
68177;DHT22;56478;50.982;7.032;2023-04-25T15:24:09;14.43;41.46
68177;DHT22;56478;50.982;7.032;2023-04-25T15:26:35;14.20;42.93
68177;DHT22;56478;50.982;7.032;2023-04-25T15:29:00;14.43;42.36
68177;DHT22;56478;50.982;7.032;2023-04-25T15:31:26;14.15;43.44
68177;DHT22;56478;50.982;7.032;2023-04-25T15:33:51;14.38;43.09
68177;DHT22;56478;50.982;7.032;2023-04-25T15:36:17;14.36;42.80
68177;DHT22;56478;50.982;7.032;2023-04-25T15:38:43;14.25;43.23
68177;DHT22;56478;50.982;7.032;2023-04-25T15:41:09;14.29;43.94
68177;DHT22;56478;50.982;7.032;2023-04-25T15:43:35;14.34;43.73
68177;DHT22;56478;50.982;7.032;2023-04-25T15:46:06;14.13;44.63
68177;DHT22;56478;50.982;7.032;2023-04-25T15:48:32;14.02;44.54
68177;DHT22;56478;50.982;7.032;2023-04-25T15:50:58;13.33;46.60
68177;DHT22;56478;50.982;7.032;2023-04-25T15:53:23;13.36;47.70
68177;DHT22;56478;50.982;7.032;2023-04-25T15:55:49;13.46;47.82
68177;DHT22;56478;50.982;7.032;2023-04-25T15:58:15;13.47;48.60
68177;DHT22;56478;50.982;7.032;2023-04-25T16:00:40;13.51;47.33
68177;DHT22;56478;50.982;7.032;2023-04-25T16:03:06;13.39;46.66
68177;DHT22;56478;50.982;7.032;2023-04-25T16:05:33;13.22;46.38
68177;DHT22;56478;50.982;7.032;2023-04-25T16:07:58;13.18;46.83
68177;DHT22;56478;50.982;7.032;2023-04-25T16:10:25;13.11;47.54
68177;DHT22;56478;50.982;7.032;2023-04-25T16:12:50;13.12;47.71
68177;DHT22;56478;50.982;7.032;2023-04-25T16:15:16;13.06;47.45
68177;DHT22;56478;50.982;7.032;2023-04-25T16:17:42;13.03;48.31
68177;DHT22;56478;50.982;7.032;2023-04-25T16:20:08;13.01;49.14
68177;DHT22;56478;50.982;7.032;2023-04-25T16:22:38;12.96;48.42
68177;DHT22;56478;50.982;7.032;2023-04-25T16:25:05;12.98;47.38
68177;DHT22;56478;50.982;7.032;2023-04-25T16:27:30;13.05;47.45
68177;DHT22;56478;50.982;7.032;2023-04-25T16:29:56;12.89;48.64
68177;DHT22;56478;50.982;7.032;2023-04-25T16:32:22;12.91;46.60
68177;DHT22;56478;50.982;7.032;2023-04-25T16:34:47;12.96;48.23
68177;DHT22;56478;50.982;7.032;2023-04-25T16:37:13;12.83;47.04
68177;DHT22;56478;50.982;7.032;2023-04-25T16:39:38;12.77;47.08
68177;DHT22;56478;50.982;7.032;2023-04-25T16:42:05;12.75;47.52
68177;DHT22;56478;50.982;7.032;2023-04-25T16:44:31;12.67;49.86
68177;DHT22;56478;50.982;7.032;2023-04-25T16:46:56;12.53;48.47
68177;DHT22;56478;50.982;7.032;2023-04-25T16:49:22;12.65;47.23
68177;DHT22;56478;50.982;7.032;2023-04-25T16:51:47;12.57;48.71
68177;DHT22;56478;50.982;7.032;2023-04-25T16:54:13;12.57;48.52
68177;DHT22;56478;50.982;7.032;2023-04-25T16:56:38;12.71;48.51
68177;DHT22;56478;50.982;7.032;2023-04-25T16:59:04;12.80;48.41
68177;DHT22;56478;50.982;7.032;2023-04-25T17:01:29;12.84;48.80
68177;DHT22;56478;50.982;7.032;2023-04-25T17:03:56;12.91;47.06
68177;DHT22;56478;50.982;7.032;2023-04-25T17:06:22;12.88;47.25
68177;DHT22;56478;50.982;7.032;2023-04-25T17:08:47;12.69;46.66
68177;DHT22;56478;50.982;7.032;2023-04-25T17:11:13;12.64;46.21
68177;DHT22;56478;50.982;7.032;2023-04-25T17:13:38;12.60;46.91
68177;DHT22;56478;50.982;7.032;2023-04-25T17:16:04;12.61;46.18
68177;DHT22;56478;50.982;7.032;2023-04-25T17:18:31;12.60;45.69
68177;DHT22;56478;50.982;7.032;2023-04-25T17:20:56;12.44;46.78
68177;DHT22;56478;50.982;7.032;2023-04-25T17:23:22;12.39;47.71
68177;DHT22;56478;50.982;7.032;2023-04-25T17:25:48;12.26;46.76
68177;DHT22;56478;50.982;7.032;2023-04-25T17:28:13;12.39;46.97
68177;DHT22;56478;50.982;7.032;2023-04-25T17:30:39;12.40;47.48
68177;DHT22;56478;50.982;7.032;2023-04-25T17:33:06;12.46;45.80
68177;DHT22;56478;50.982;7.032;2023-04-25T17:35:32;12.51;46.75
68177;DHT22;56478;50.982;7.032;2023-04-25T17:38:01;12.39;46.33
68177;DHT22;56478;50.982;7.032;2023-04-25T17:40:26;12.30;47.09
68177;DHT22;56478;50.982;7.032;2023-04-25T17:42:52;12.25;48.83
68177;DHT22;56478;50.982;7.032;2023-04-25T17:45:17;12.36;45.92
68177;DHT22;56478;50.982;7.032;2023-04-25T17:47:43;12.44;46.43
68177;DHT22;56478;50.982;7.032;2023-04-25T17:50:09;12.26;48.35
68177;DHT22;56478;50.982;7.032;2023-04-25T17:52:34;12.36;46.18
68177;DHT22;56478;50.982;7.032;2023-04-25T17:55:04;12.28;46.73
68177;DHT22;56478;50.982;7.032;2023-04-25T17:57:31;12.15;46.57
68177;DHT22;56478;50.982;7.032;2023-04-25T17:59:56;12.05;43.67
68177;DHT22;56478;50.982;7.032;2023-04-25T18:02:22;11.87;46.19
68177;DHT22;56478;50.982;7.032;2023-04-25T18:04:47;11.69;46.14
68177;DHT22;56478;50.982;7.032;2023-04-25T18:07:13;11.57;46.03
68177;DHT22;56478;50.982;7.032;2023-04-25T18:09:39;11.46;46.52
68177;DHT22;56478;50.982;7.032;2023-04-25T18:12:05;11.43;46.45
68177;DHT22;56478;50.982;7.032;2023-04-25T18:14:32;11.26;48.07
68177;DHT22;56478;50.982;7.032;2023-04-25T18:16:59;11.25;48.16
68177;DHT22;56478;50.982;7.032;2023-04-25T18:19:24;11.25;47.49
68177;DHT22;56478;50.982;7.032;2023-04-25T18:21:52;11.07;47.72
68177;DHT22;56478;50.982;7.032;2023-04-25T18:24:22;10.97;47.71
68177;DHT22;56478;50.982;7.032;2023-04-25T18:26:49;10.92;48.43
68177;DHT22;56478;50.982;7.032;2023-04-25T18:29:16;10.94;48.52
68177;DHT22;56478;50.982;7.032;2023-04-25T18:31:43;10.94;48.71
68177;DHT22;56478;50.982;7.032;2023-04-25T18:34:10;10.90;49.94
68177;DHT22;56478;50.982;7.032;2023-04-25T18:36:36;10.88;49.60
68177;DHT22;56478;50.982;7.032;2023-04-25T18:39:03;10.81;51.30
68177;DHT22;56478;50.982;7.032;2023-04-25T18:41:31;10.77;52.17
68177;DHT22;56478;50.982;7.032;2023-04-25T18:43:58;10.70;52.67
68177;DHT22;56478;50.982;7.032;2023-04-25T18:46:27;10.67;54.30
68177;DHT22;56478;50.982;7.032;2023-04-25T18:48:53;10.67;53.04
68177;DHT22;56478;50.982;7.032;2023-04-25T18:51:20;10.64;52.97
68177;DHT22;56478;50.982;7.032;2023-04-25T18:53:51;10.64;53.92
68177;DHT22;56478;50.982;7.032;2023-04-25T18:56:17;10.60;54.89
68177;DHT22;56478;50.982;7.032;2023-04-25T18:58:45;10.59;54.17
68177;DHT22;56478;50.982;7.032;2023-04-25T19:01:11;10.60;52.98
68177;DHT22;56478;50.982;7.032;2023-04-25T19:03:37;10.60;53.39
68177;DHT22;56478;50.982;7.032;2023-04-25T19:06:03;10.56;55.26
68177;DHT22;56478;50.982;7.032;2023-04-25T19:08:29;10.52;56.41
68177;DHT22;56478;50.982;7.032;2023-04-25T19:10:55;10.50;53.85
68177;DHT22;56478;50.982;7.032;2023-04-25T19:13:21;10.42;54.00
68177;DHT22;56478;50.982;7.032;2023-04-25T19:15:47;10.36;53.22
68177;DHT22;56478;50.982;7.032;2023-04-25T19:18:12;10.22;53.29
68177;DHT22;56478;50.982;7.032;2023-04-25T19:20:41;10.16;56.63
68177;DHT22;56478;50.982;7.032;2023-04-25T19:23:08;10.02;58.06
68177;DHT22;56478;50.982;7.032;2023-04-25T19:25:35;9.90;58.43
68177;DHT22;56478;50.982;7.032;2023-04-25T19:28:00;9.77;58.65
68177;DHT22;56478;50.982;7.032;2023-04-25T19:30:27;9.63;59.09
68177;DHT22;56478;50.982;7.032;2023-04-25T19:32:56;9.57;58.04
68177;DHT22;56478;50.982;7.032;2023-04-25T19:35:22;9.60;58.57
68177;DHT22;56478;50.982;7.032;2023-04-25T19:37:48;9.57;60.92
68177;DHT22;56478;50.982;7.032;2023-04-25T19:40:15;9.47;60.65
68177;DHT22;56478;50.982;7.032;2023-04-25T19:42:41;9.43;59.97
68177;DHT22;56478;50.982;7.032;2023-04-25T19:45:07;9.36;59.93
68177;DHT22;56478;50.982;7.032;2023-04-25T19:47:33;9.36;59.34
68177;DHT22;56478;50.982;7.032;2023-04-25T19:50:03;9.36;57.90
68177;DHT22;56478;50.982;7.032;2023-04-25T19:52:29;9.31;57.56
68177;DHT22;56478;50.982;7.032;2023-04-25T19:54:55;9.31;56.81
68177;DHT22;56478;50.982;7.032;2023-04-25T19:57:25;9.34;57.81
68177;DHT22;56478;50.982;7.032;2023-04-25T20:00:00;9.22;57.45
68177;DHT22;56478;50.982;7.032;2023-04-25T20:02:29;9.19;57.01
68177;DHT22;56478;50.982;7.032;2023-04-25T20:04:54;9.24;58.68
68177;DHT22;56478;50.982;7.032;2023-04-25T20:07:20;9.17;58.48
68177;DHT22;56478;50.982;7.032;2023-04-25T20:09:48;9.17;57.51
68177;DHT22;56478;50.982;7.032;2023-04-25T20:12:14;9.08;59.19
68177;DHT22;56478;50.982;7.032;2023-04-25T20:14:39;9.08;59.89
68177;DHT22;56478;50.982;7.032;2023-04-25T20:17:08;9.04;60.17
68177;DHT22;56478;50.982;7.032;2023-04-25T20:19:35;8.92;62.10
68177;DHT22;56478;50.982;7.032;2023-04-25T20:22:05;8.85;61.86
68177;DHT22;56478;50.982;7.032;2023-04-25T20:24:30;8.85;61.26
68177;DHT22;56478;50.982;7.032;2023-04-25T20:26:56;8.85;62.84
68177;DHT22;56478;50.982;7.032;2023-04-25T20:29:23;8.77;62.77
68177;DHT22;56478;50.982;7.032;2023-04-25T20:31:50;8.69;62.32
68177;DHT22;56478;50.982;7.032;2023-04-25T20:34:20;8.63;63.13
68177;DHT22;56478;50.982;7.032;2023-04-25T20:36:47;8.56;63.66
68177;DHT22;56478;50.982;7.032;2023-04-25T20:39:12;8.52;64.49
68177;DHT22;56478;50.982;7.032;2023-04-25T20:41:39;8.48;64.07
68177;DHT22;56478;50.982;7.032;2023-04-25T20:44:05;8.44;64.27
68177;DHT22;56478;50.982;7.032;2023-04-25T20:46:33;8.35;64.37